Terminal Aerodrome Forecast
Issued by NWS Buffalo, NY

Home | Current Version | Previous Version | Text Only | Print | Product List | Glossary On
Versions: 1 2 3 4 5 6 7 8 9 10 11 12 13 14 15 16 17 18 19 20 21 22 23 24 25
000
FTUS41 KBUF 010500
TAFBUF
TAF
KBUF 010539Z 0106/0206 04010KT 6SM -RA OVC015
     FM010800 03010KT 6SM -RA OVC008
     FM011400 02014KT P6SM VCSH OVC015
     FM011800 36014KT P6SM OVC025
     FM020000 35012KT P6SM BKN040=

USA.gov is the U.S. government's official web portal to all federal, state and local government web resources and services.